sensor_id;sensor_type;location;lat;lon;timestamp;P1;durP1;ratioP1;P2;durP2;ratioP2
19804;SDS011;10062;51.052;13.756;2023-04-03T00:00:20;5.10;;;1.67;;
19804;SDS011;10062;51.052;13.756;2023-04-03T00:02:53;7.13;;;2.03;;
19804;SDS011;10062;51.052;13.756;2023-04-03T00:05:25;3.27;;;1.40;;
19804;SDS011;10062;51.052;13.756;2023-04-03T00:07:56;6.23;;;1.87;;
19804;SDS011;10062;51.052;13.756;2023-04-03T00:10:28;5.23;;;1.53;;
19804;SDS011;10062;51.052;13.756;2023-04-03T00:13:00;4.63;;;1.30;;
19804;SDS011;10062;51.052;13.756;2023-04-03T00:15:31;4.87;;;1.47;;
19804;SDS011;10062;51.052;13.756;2023-04-03T00:18:05;5.97;;;1.63;;
19804;SDS011;10062;51.052;13.756;2023-04-03T00:20:37;5.87;;;1.73;;
19804;SDS011;10062;51.052;13.756;2023-04-03T00:23:08;3.83;;;1.57;;
19804;SDS011;10062;51.052;13.756;2023-04-03T00:25:40;5.13;;;1.67;;
19804;SDS011;10062;51.052;13.756;2023-04-03T00:28:12;5.47;;;1.43;;
19804;SDS011;10062;51.052;13.756;2023-04-03T00:30:44;5.23;;;2.00;;
19804;SDS011;10062;51.052;13.756;2023-04-03T00:33:17;5.33;;;1.70;;
19804;SDS011;10062;51.052;13.756;2023-04-03T00:35:51;4.73;;;1.77;;
19804;SDS011;10062;51.052;13.756;2023-04-03T00:38:23;6.00;;;1.67;;
19804;SDS011;10062;51.052;13.756;2023-04-03T00:40:55;5.87;;;1.83;;
19804;SDS011;10062;51.052;13.756;2023-04-03T00:43:27;4.97;;;1.67;;
19804;SDS011;10062;51.052;13.756;2023-04-03T00:45:59;8.23;;;2.30;;
19804;SDS011;10062;51.052;13.756;2023-04-03T00:48:33;4.07;;;1.70;;
19804;SDS011;10062;51.052;13.756;2023-04-03T00:51:07;3.77;;;1.50;;
19804;SDS011;10062;51.052;13.756;2023-04-03T00:53:43;6.13;;;1.60;;
19804;SDS011;10062;51.052;13.756;2023-04-03T00:56:19;4.33;;;1.40;;
19804;SDS011;10062;51.052;13.756;2023-04-03T00:58:55;4.57;;;1.40;;
19804;SDS011;10062;51.052;13.756;2023-04-03T01:01:30;7.40;;;2.50;;
19804;SDS011;10062;51.052;13.756;2023-04-03T01:04:04;7.60;;;2.10;;
19804;SDS011;10062;51.052;13.756;2023-04-03T01:06:37;3.47;;;1.67;;
19804;SDS011;10062;51.052;13.756;2023-04-03T01:09:11;6.40;;;2.07;;
19804;SDS011;10062;51.052;13.756;2023-04-03T01:11:43;7.63;;;2.07;;
19804;SDS011;10062;51.052;13.756;2023-04-03T01:14:15;9.93;;;1.87;;
19804;SDS011;10062;51.052;13.756;2023-04-03T01:16:51;8.60;;;1.80;;
19804;SDS011;10062;51.052;13.756;2023-04-03T01:19:25;4.70;;;1.50;;
19804;SDS011;10062;51.052;13.756;2023-04-03T01:22:05;4.77;;;1.60;;
19804;SDS011;10062;51.052;13.756;2023-04-03T01:24:47;6.37;;;1.70;;
19804;SDS011;10062;51.052;13.756;2023-04-03T01:27:19;5.73;;;1.80;;
19804;SDS011;10062;51.052;13.756;2023-04-03T01:29:51;5.33;;;1.40;;
19804;SDS011;10062;51.052;13.756;2023-04-03T01:32:24;6.47;;;2.07;;
19804;SDS011;10062;51.052;13.756;2023-04-03T01:34:55;7.80;;;2.10;;
19804;SDS011;10062;51.052;13.756;2023-04-03T01:37:27;5.33;;;1.83;;
19804;SDS011;10062;51.052;13.756;2023-04-03T01:39:59;5.10;;;1.93;;
19804;SDS011;10062;51.052;13.756;2023-04-03T01:42:30;5.17;;;1.80;;
19804;SDS011;10062;51.052;13.756;2023-04-03T01:45:02;5.93;;;1.70;;
19804;SDS011;10062;51.052;13.756;2023-04-03T01:47:36;5.90;;;2.17;;
19804;SDS011;10062;51.052;13.756;2023-04-03T01:50:09;5.30;;;1.87;;
19804;SDS011;10062;51.052;13.756;2023-04-03T01:52:41;4.43;;;1.53;;
19804;SDS011;10062;51.052;13.756;2023-04-03T01:55:13;4.93;;;1.53;;
19804;SDS011;10062;51.052;13.756;2023-04-03T01:57:45;5.13;;;1.80;;
19804;SDS011;10062;51.052;13.756;2023-04-03T02:00:16;4.27;;;1.50;;
19804;SDS011;10062;51.052;13.756;2023-04-03T02:02:50;4.90;;;2.10;;
19804;SDS011;10062;51.052;13.756;2023-04-03T02:05:22;4.07;;;1.40;;
19804;SDS011;10062;51.052;13.756;2023-04-03T02:07:54;5.57;;;2.03;;
19804;SDS011;10062;51.052;13.756;2023-04-03T02:10:26;4.83;;;2.03;;
19804;SDS011;10062;51.052;13.756;2023-04-03T02:12:58;4.60;;;1.70;;
19804;SDS011;10062;51.052;13.756;2023-04-03T02:15:30;3.80;;;1.63;;
19804;SDS011;10062;51.052;13.756;2023-04-03T02:18:03;5.07;;;1.87;;
19804;SDS011;10062;51.052;13.756;2023-04-03T02:20:34;5.53;;;1.77;;
19804;SDS011;10062;51.052;13.756;2023-04-03T02:23:06;2.93;;;1.40;;
19804;SDS011;10062;51.052;13.756;2023-04-03T02:25:38;5.03;;;1.93;;
19804;SDS011;10062;51.052;13.756;2023-04-03T02:28:09;3.23;;;1.63;;
19804;SDS011;10062;51.052;13.756;2023-04-03T02:30:41;4.93;;;2.37;;
19804;SDS011;10062;51.052;13.756;2023-04-03T02:33:15;6.40;;;2.27;;
19804;SDS011;10062;51.052;13.756;2023-04-03T02:35:51;6.47;;;1.67;;
19804;SDS011;10062;51.052;13.756;2023-04-03T02:38:25;4.20;;;1.43;;
19804;SDS011;10062;51.052;13.756;2023-04-03T02:40:59;8.43;;;1.83;;
19804;SDS011;10062;51.052;13.756;2023-04-03T02:43:32;6.27;;;2.53;;
19804;SDS011;10062;51.052;13.756;2023-04-03T02:46:04;4.70;;;1.50;;
19804;SDS011;10062;51.052;13.756;2023-04-03T02:48:38;5.33;;;1.53;;
19804;SDS011;10062;51.052;13.756;2023-04-03T02:51:10;4.70;;;1.50;;
19804;SDS011;10062;51.052;13.756;2023-04-03T02:53:41;4.70;;;1.50;;
19804;SDS011;10062;51.052;13.756;2023-04-03T02:56:18;7.17;;;1.90;;
19804;SDS011;10062;51.052;13.756;2023-04-03T02:58:50;9.43;;;1.87;;
19804;SDS011;10062;51.052;13.756;2023-04-03T03:01:23;3.17;;;1.63;;
19804;SDS011;10062;51.052;13.756;2023-04-03T03:03:56;6.73;;;2.00;;
19804;SDS011;10062;51.052;13.756;2023-04-03T03:06:27;5.23;;;1.70;;
19804;SDS011;10062;51.052;13.756;2023-04-03T03:08:59;3.57;;;1.47;;
19804;SDS011;10062;51.052;13.756;2023-04-03T03:11:31;7.80;;;1.70;;
19804;SDS011;10062;51.052;13.756;2023-04-03T03:14:03;4.20;;;1.73;;
19804;SDS011;10062;51.052;13.756;2023-04-03T03:16:34;6.33;;;2.10;;
19804;SDS011;10062;51.052;13.756;2023-04-03T03:19:07;7.53;;;2.13;;
19804;SDS011;10062;51.052;13.756;2023-04-03T03:21:40;6.10;;;1.90;;
19804;SDS011;10062;51.052;13.756;2023-04-03T03:24:11;3.50;;;1.90;;
19804;SDS011;10062;51.052;13.756;2023-04-03T03:26:43;7.77;;;1.73;;
19804;SDS011;10062;51.052;13.756;2023-04-03T03:29:16;3.83;;;1.43;;
19804;SDS011;10062;51.052;13.756;2023-04-03T03:31:48;4.37;;;1.73;;
19804;SDS011;10062;51.052;13.756;2023-04-03T03:34:21;3.97;;;1.80;;
19804;SDS011;10062;51.052;13.756;2023-04-03T03:36:53;7.00;;;2.00;;
19804;SDS011;10062;51.052;13.756;2023-04-03T03:39:25;5.03;;;1.70;;
19804;SDS011;10062;51.052;13.756;2023-04-03T03:41:57;5.23;;;2.03;;
19804;SDS011;10062;51.052;13.756;2023-04-03T03:44:28;6.37;;;2.00;;
19804;SDS011;10062;51.052;13.756;2023-04-03T03:47:00;6.23;;;1.50;;
19804;SDS011;10062;51.052;13.756;2023-04-03T03:49:34;3.70;;;1.43;;
19804;SDS011;10062;51.052;13.756;2023-04-03T03:52:06;4.63;;;1.87;;
19804;SDS011;10062;51.052;13.756;2023-04-03T03:54:41;4.80;;;1.93;;
19804;SDS011;10062;51.052;13.756;2023-04-03T03:57:13;6.50;;;1.90;;
19804;SDS011;10062;51.052;13.756;2023-04-03T03:59:45;3.03;;;1.57;;
19804;SDS011;10062;51.052;13.756;2023-04-03T04:02:20;6.27;;;1.50;;
19804;SDS011;10062;51.052;13.756;2023-04-03T04:04:53;5.27;;;2.03;;
19804;SDS011;10062;51.052;13.756;2023-04-03T04:07:25;8.80;;;1.70;;
19804;SDS011;10062;51.052;13.756;2023-04-03T04:09:58;6.20;;;2.00;;
19804;SDS011;10062;51.052;13.756;2023-04-03T04:12:30;7.03;;;2.07;;
19804;SDS011;10062;51.052;13.756;2023-04-03T04:15:02;3.00;;;1.33;;
19804;SDS011;10062;51.052;13.756;2023-04-03T04:17:34;3.00;;;1.20;;
19804;SDS011;10062;51.052;13.756;2023-04-03T04:20:11;5.07;;;1.37;;
19804;SDS011;10062;51.052;13.756;2023-04-03T04:22:44;7.20;;;1.73;;
19804;SDS011;10062;51.052;13.756;2023-04-03T04:25:16;3.63;;;1.53;;
19804;SDS011;10062;51.052;13.756;2023-04-03T04:27:48;3.63;;;1.50;;
19804;SDS011;10062;51.052;13.756;2023-04-03T04:30:19;4.03;;;1.60;;
19804;SDS011;10062;51.052;13.756;2023-04-03T04:32:53;9.57;;;2.27;;
19804;SDS011;10062;51.052;13.756;2023-04-03T04:35:26;7.80;;;2.13;;
19804;SDS011;10062;51.052;13.756;2023-04-03T04:37:57;5.93;;;1.97;;
19804;SDS011;10062;51.052;13.756;2023-04-03T04:40:30;8.97;;;1.93;;
19804;SDS011;10062;51.052;13.756;2023-04-03T04:43:03;7.77;;;1.90;;
19804;SDS011;10062;51.052;13.756;2023-04-03T04:45:34;6.80;;;2.37;;
19804;SDS011;10062;51.052;13.756;2023-04-03T04:48:06;9.73;;;2.07;;
19804;SDS011;10062;51.052;13.756;2023-04-03T04:50:40;4.40;;;2.03;;
19804;SDS011;10062;51.052;13.756;2023-04-03T04:53:11;6.97;;;2.03;;
19804;SDS011;10062;51.052;13.756;2023-04-03T04:55:43;10.20;;;2.33;;
19804;SDS011;10062;51.052;13.756;2023-04-03T04:58:15;6.47;;;2.13;;
19804;SDS011;10062;51.052;13.756;2023-04-03T05:00:47;8.10;;;2.23;;
19804;SDS011;10062;51.052;13.756;2023-04-03T05:03:19;7.13;;;2.70;;
19804;SDS011;10062;51.052;13.756;2023-04-03T05:05:53;7.47;;;1.93;;
19804;SDS011;10062;51.052;13.756;2023-04-03T05:08:25;3.73;;;2.10;;
19804;SDS011;10062;51.052;13.756;2023-04-03T05:10:57;7.60;;;2.23;;
19804;SDS011;10062;51.052;13.756;2023-04-03T05:13:30;7.47;;;2.47;;
19804;SDS011;10062;51.052;13.756;2023-04-03T05:16:02;10.07;;;2.83;;
19804;SDS011;10062;51.052;13.756;2023-04-03T05:18:34;6.07;;;2.30;;
19804;SDS011;10062;51.052;13.756;2023-04-03T05:21:12;8.43;;;2.50;;
19804;SDS011;10062;51.052;13.756;2023-04-03T05:23:45;10.03;;;2.73;;
19804;SDS011;10062;51.052;13.756;2023-04-03T05:26:17;8.07;;;3.07;;
19804;SDS011;10062;51.052;13.756;2023-04-03T05:28:51;7.40;;;3.20;;
19804;SDS011;10062;51.052;13.756;2023-04-03T05:31:24;8.40;;;2.70;;
19804;SDS011;10062;51.052;13.756;2023-04-03T05:34:00;5.57;;;2.77;;
19804;SDS011;10062;51.052;13.756;2023-04-03T05:36:35;7.90;;;2.63;;
19804;SDS011;10062;51.052;13.756;2023-04-03T05:39:10;7.07;;;2.77;;
19804;SDS011;10062;51.052;13.756;2023-04-03T05:41:45;8.70;;;3.23;;
19804;SDS011;10062;51.052;13.756;2023-04-03T05:44:16;5.63;;;2.70;;
19804;SDS011;10062;51.052;13.756;2023-04-03T05:46:50;7.40;;;2.50;;
19804;SDS011;10062;51.052;13.756;2023-04-03T05:49:22;12.23;;;3.00;;
19804;SDS011;10062;51.052;13.756;2023-04-03T05:51:55;12.13;;;3.10;;
19804;SDS011;10062;51.052;13.756;2023-04-03T05:54:31;5.50;;;2.07;;
19804;SDS011;10062;51.052;13.756;2023-04-03T05:57:17;11.27;;;2.50;;
19804;SDS011;10062;51.052;13.756;2023-04-03T05:59:50;9.57;;;2.60;;
19804;SDS011;10062;51.052;13.756;2023-04-03T06:02:23;7.93;;;2.50;;
19804;SDS011;10062;51.052;13.756;2023-04-03T06:04:56;10.10;;;2.70;;
19804;SDS011;10062;51.052;13.756;2023-04-03T06:07:30;13.73;;;2.70;;
19804;SDS011;10062;51.052;13.756;2023-04-03T06:10:04;4.60;;;2.13;;
19804;SDS011;10062;51.052;13.756;2023-04-03T06:12:37;8.00;;;2.43;;
19804;SDS011;10062;51.052;13.756;2023-04-03T06:15:09;11.27;;;2.67;;
19804;SDS011;10062;51.052;13.756;2023-04-03T06:17:44;9.00;;;2.20;;
19804;SDS011;10062;51.052;13.756;2023-04-03T06:20:17;4.37;;;2.23;;
19804;SDS011;10062;51.052;13.756;2023-04-03T06:22:50;8.43;;;2.40;;
19804;SDS011;10062;51.052;13.756;2023-04-03T06:25:22;8.80;;;2.50;;
19804;SDS011;10062;51.052;13.756;2023-04-03T06:27:54;14.23;;;5.77;;
19804;SDS011;10062;51.052;13.756;2023-04-03T06:30:27;7.73;;;2.70;;
19804;SDS011;10062;51.052;13.756;2023-04-03T06:33:00;10.57;;;3.00;;
19804;SDS011;10062;51.052;13.756;2023-04-03T06:35:32;9.13;;;2.23;;
19804;SDS011;10062;51.052;13.756;2023-04-03T06:38:06;6.53;;;2.30;;
19804;SDS011;10062;51.052;13.756;2023-04-03T06:40:39;5.30;;;2.30;;
19804;SDS011;10062;51.052;13.756;2023-04-03T06:43:11;8.73;;;2.87;;
19804;SDS011;10062;51.052;13.756;2023-04-03T06:45:43;6.93;;;2.60;;
19804;SDS011;10062;51.052;13.756;2023-04-03T06:48:14;6.03;;;2.40;;
19804;SDS011;10062;51.052;13.756;2023-04-03T06:50:46;5.93;;;1.80;;
19804;SDS011;10062;51.052;13.756;2023-04-03T06:53:19;8.33;;;2.40;;
19804;SDS011;10062;51.052;13.756;2023-04-03T06:55:51;6.53;;;2.20;;
19804;SDS011;10062;51.052;13.756;2023-04-03T06:58:23;9.03;;;2.77;;
19804;SDS011;10062;51.052;13.756;2023-04-03T07:00:54;8.33;;;2.87;;
19804;SDS011;10062;51.052;13.756;2023-04-03T07:03:27;2.80;;;1.60;;
19804;SDS011;10062;51.052;13.756;2023-04-03T07:05:58;6.07;;;1.90;;
19804;SDS011;10062;51.052;13.756;2023-04-03T07:08:31;8.00;;;2.70;;
19804;SDS011;10062;51.052;13.756;2023-04-03T07:11:04;5.13;;;2.07;;
19804;SDS011;10062;51.052;13.756;2023-04-03T07:13:37;10.97;;;2.67;;
19804;SDS011;10062;51.052;13.756;2023-04-03T07:16:10;6.57;;;2.37;;
19804;SDS011;10062;51.052;13.756;2023-04-03T07:18:43;6.33;;;1.93;;
19804;SDS011;10062;51.052;13.756;2023-04-03T07:21:15;5.80;;;1.80;;
19804;SDS011;10062;51.052;13.756;2023-04-03T07:23:48;6.77;;;1.90;;
19804;SDS011;10062;51.052;13.756;2023-04-03T07:26:20;7.50;;;2.50;;
19804;SDS011;10062;51.052;13.756;2023-04-03T07:28:52;5.57;;;2.30;;
19804;SDS011;10062;51.052;13.756;2023-04-03T07:31:24;8.67;;;2.60;;
19804;SDS011;10062;51.052;13.756;2023-04-03T07:33:57;7.30;;;1.70;;
19804;SDS011;10062;51.052;13.756;2023-04-03T07:36:28;6.87;;;2.07;;
19804;SDS011;10062;51.052;13.756;2023-04-03T07:39:05;7.07;;;2.03;;
19804;SDS011;10062;51.052;13.756;2023-04-03T07:41:38;6.07;;;2.00;;
19804;SDS011;10062;51.052;13.756;2023-04-03T07:44:09;5.37;;;2.30;;
19804;SDS011;10062;51.052;13.756;2023-04-03T07:46:41;6.90;;;2.03;;
19804;SDS011;10062;51.052;13.756;2023-04-03T07:49:13;7.60;;;2.47;;
19804;SDS011;10062;51.052;13.756;2023-04-03T07:51:44;5.87;;;2.00;;
19804;SDS011;10062;51.052;13.756;2023-04-03T07:54:18;6.40;;;2.40;;
19804;SDS011;10062;51.052;13.756;2023-04-03T07:56:49;6.13;;;1.73;;
19804;SDS011;10062;51.052;13.756;2023-04-03T07:59:21;6.87;;;2.00;;
19804;SDS011;10062;51.052;13.756;2023-04-03T08:01:53;9.90;;;3.17;;
19804;SDS011;10062;51.052;13.756;2023-04-03T08:04:24;6.00;;;2.27;;
19804;SDS011;10062;51.052;13.756;2023-04-03T08:06:56;10.27;;;2.57;;
19804;SDS011;10062;51.052;13.756;2023-04-03T08:09:29;7.17;;;1.93;;
19804;SDS011;10062;51.052;13.756;2023-04-03T08:12:01;6.57;;;2.33;;
19804;SDS011;10062;51.052;13.756;2023-04-03T08:14:33;6.23;;;2.20;;
19804;SDS011;10062;51.052;13.756;2023-04-03T08:17:05;6.30;;;2.10;;
19804;SDS011;10062;51.052;13.756;2023-04-03T08:19:39;4.10;;;1.93;;
19804;SDS011;10062;51.052;13.756;2023-04-03T08:22:11;6.10;;;1.70;;
19804;SDS011;10062;51.052;13.756;2023-04-03T08:24:44;3.90;;;1.80;;
19804;SDS011;10062;51.052;13.756;2023-04-03T08:27:16;7.03;;;2.20;;
19804;SDS011;10062;51.052;13.756;2023-04-03T08:29:47;10.23;;;2.13;;
19804;SDS011;10062;51.052;13.756;2023-04-03T08:32:19;9.13;;;2.20;;
19804;SDS011;10062;51.052;13.756;2023-04-03T08:34:51;4.77;;;2.00;;
19804;SDS011;10062;51.052;13.756;2023-04-03T08:37:22;3.37;;;1.77;;
19804;SDS011;10062;51.052;13.756;2023-04-03T08:39:55;6.87;;;2.57;;
19804;SDS011;10062;51.052;13.756;2023-04-03T08:42:31;5.13;;;1.90;;
19804;SDS011;10062;51.052;13.756;2023-04-03T08:45:12;6.33;;;2.30;;
19804;SDS011;10062;51.052;13.756;2023-04-03T08:47:47;6.70;;;2.03;;
19804;SDS011;10062;51.052;13.756;2023-04-03T08:50:24;5.77;;;1.60;;
19804;SDS011;10062;51.052;13.756;2023-04-03T08:53:00;4.50;;;2.00;;
19804;SDS011;10062;51.052;13.756;2023-04-03T08:55:37;4.77;;;1.83;;
19804;SDS011;10062;51.052;13.756;2023-04-03T08:58:14;7.03;;;1.90;;
19804;SDS011;10062;51.052;13.756;2023-04-03T09:00:48;6.43;;;1.93;;
19804;SDS011;10062;51.052;13.756;2023-04-03T09:03:21;4.47;;;2.00;;
19804;SDS011;10062;51.052;13.756;2023-04-03T09:05:54;6.77;;;1.93;;
19804;SDS011;10062;51.052;13.756;2023-04-03T09:08:31;5.40;;;1.77;;
19804;SDS011;10062;51.052;13.756;2023-04-03T09:11:09;5.17;;;1.70;;
19804;SDS011;10062;51.052;13.756;2023-04-03T09:13:49;3.23;;;1.50;;
19804;SDS011;10062;51.052;13.756;2023-04-03T09:16:27;15.53;;;4.70;;
19804;SDS011;10062;51.052;13.756;2023-04-03T09:19:09;12.27;;;5.90;;
19804;SDS011;10062;51.052;13.756;2023-04-03T09:21:47;8.80;;;2.40;;
19804;SDS011;10062;51.052;13.756;2023-04-03T09:24:19;8.37;;;2.17;;
19804;SDS011;10062;51.052;13.756;2023-04-03T09:26:55;7.93;;;2.53;;
19804;SDS011;10062;51.052;13.756;2023-04-03T09:29:30;13.53;;;3.50;;
19804;SDS011;10062;51.052;13.756;2023-04-03T09:32:07;5.90;;;1.63;;
19804;SDS011;10062;51.052;13.756;2023-04-03T09:34:52;3.77;;;1.50;;
19804;SDS011;10062;51.052;13.756;2023-04-03T09:37:33;7.97;;;1.80;;
19804;SDS011;10062;51.052;13.756;2023-04-03T09:40:27;4.73;;;1.90;;
19804;SDS011;10062;51.052;13.756;2023-04-03T09:43:04;6.10;;;1.87;;
19804;SDS011;10062;51.052;13.756;2023-04-03T09:45:51;5.50;;;2.00;;
19804;SDS011;10062;51.052;13.756;2023-04-03T09:48:24;11.03;;;1.70;;
19804;SDS011;10062;51.052;13.756;2023-04-03T09:50:59;4.47;;;1.70;;
19804;SDS011;10062;51.052;13.756;2023-04-03T09:53:34;5.30;;;1.63;;
19804;SDS011;10062;51.052;13.756;2023-04-03T09:56:18;3.77;;;1.60;;
19804;SDS011;10062;51.052;13.756;2023-04-03T09:59:03;6.43;;;2.40;;
19804;SDS011;10062;51.052;13.756;2023-04-03T10:01:57;5.40;;;1.73;;
19804;SDS011;10062;51.052;13.756;2023-04-03T10:04:37;5.90;;;1.30;;
19804;SDS011;10062;51.052;13.756;2023-04-03T10:07:26;6.27;;;1.93;;
19804;SDS011;10062;51.052;13.756;2023-04-03T10:10:00;2.90;;;1.20;;
19804;SDS011;10062;51.052;13.756;2023-04-03T10:12:33;6.17;;;1.47;;
19804;SDS011;10062;51.052;13.756;2023-04-03T10:15:11;4.30;;;1.40;;
19804;SDS011;10062;51.052;13.756;2023-04-03T10:17:49;6.97;;;1.97;;
19804;SDS011;10062;51.052;13.756;2023-04-03T10:20:27;6.97;;;1.80;;
19804;SDS011;10062;51.052;13.756;2023-04-03T10:23:12;7.70;;;1.63;;
19804;SDS011;10062;51.052;13.756;2023-04-03T10:25:50;6.23;;;1.63;;
19804;SDS011;10062;51.052;13.756;2023-04-03T10:28:32;4.27;;;1.53;;
19804;SDS011;10062;51.052;13.756;2023-04-03T10:31:13;6.43;;;1.63;;
19804;SDS011;10062;51.052;13.756;2023-04-03T10:33:50;4.20;;;1.50;;
19804;SDS011;10062;51.052;13.756;2023-04-03T10:36:30;4.27;;;1.30;;
19804;SDS011;10062;51.052;13.756;2023-04-03T10:39:11;2.23;;;1.40;;
19804;SDS011;10062;51.052;13.756;2023-04-03T10:41:55;2.97;;;1.17;;
19804;SDS011;10062;51.052;13.756;2023-04-03T10:44:34;3.43;;;1.00;;
19804;SDS011;10062;51.052;13.756;2023-04-03T10:47:13;2.80;;;1.23;;
19804;SDS011;10062;51.052;13.756;2023-04-03T10:49:54;3.80;;;1.13;;
19804;SDS011;10062;51.052;13.756;2023-04-03T10:52:30;8.43;;;1.13;;
19804;SDS011;10062;51.052;13.756;2023-04-03T10:55:14;4.27;;;1.10;;
19804;SDS011;10062;51.052;13.756;2023-04-03T10:57:58;3.67;;;1.00;;
19804;SDS011;10062;51.052;13.756;2023-04-03T11:00:37;3.80;;;1.10;;
19804;SDS011;10062;51.052;13.756;2023-04-03T11:03:14;3.07;;;1.10;;
19804;SDS011;10062;51.052;13.756;2023-04-03T11:05:52;2.90;;;1.37;;
19804;SDS011;10062;51.052;13.756;2023-04-03T11:08:26;2.87;;;1.10;;
19804;SDS011;10062;51.052;13.756;2023-04-03T11:11:04;3.10;;;1.10;;
19804;SDS011;10062;51.052;13.756;2023-04-03T11:13:40;4.27;;;1.17;;
19804;SDS011;10062;51.052;13.756;2023-04-03T11:16:16;5.53;;;1.23;;
19804;SDS011;10062;51.052;13.756;2023-04-03T11:18:54;3.13;;;1.30;;
19804;SDS011;10062;51.052;13.756;2023-04-03T11:21:31;3.50;;;1.20;;
19804;SDS011;10062;51.052;13.756;2023-04-03T11:24:11;1.97;;;0.80;;
19804;SDS011;10062;51.052;13.756;2023-04-03T11:26:51;3.40;;;1.10;;
19804;SDS011;10062;51.052;13.756;2023-04-03T11:29:27;4.50;;;1.13;;
19804;SDS011;10062;51.052;13.756;2023-04-03T11:32:09;2.50;;;1.07;;
19804;SDS011;10062;51.052;13.756;2023-04-03T11:34:55;3.10;;;1.17;;
19804;SDS011;10062;51.052;13.756;2023-04-03T11:37:31;7.80;;;1.43;;
19804;SDS011;10062;51.052;13.756;2023-04-03T11:40:07;5.83;;;1.30;;
19804;SDS011;10062;51.052;13.756;2023-04-03T11:42:49;4.03;;;1.47;;
19804;SDS011;10062;51.052;13.756;2023-04-03T11:45:36;2.40;;;1.10;;
19804;SDS011;10062;51.052;13.756;2023-04-03T11:54:36;2.67;;;1.00;;
19804;SDS011;10062;51.052;13.756;2023-04-03T12:00:49;3.17;;;1.33;;
19804;SDS011;10062;51.052;13.756;2023-04-03T12:09:53;2.87;;;1.20;;
19804;SDS011;10062;51.052;13.756;2023-04-03T12:12:35;4.00;;;1.17;;
19804;SDS011;10062;51.052;13.756;2023-04-03T12:15:17;7.20;;;2.00;;
19804;SDS011;10062;51.052;13.756;2023-04-03T12:21:22;4.13;;;1.30;;
19804;SDS011;10062;51.052;13.756;2023-04-03T12:24:23;2.73;;;1.17;;
19804;SDS011;10062;51.052;13.756;2023-04-03T12:27:05;4.37;;;1.10;;
19804;SDS011;10062;51.052;13.756;2023-04-03T12:29:50;3.13;;;1.10;;
19804;SDS011;10062;51.052;13.756;2023-04-03T12:32:31;4.10;;;1.40;;
19804;SDS011;10062;51.052;13.756;2023-04-03T12:35:18;2.93;;;1.17;;
19804;SDS011;10062;51.052;13.756;2023-04-03T12:38:00;3.67;;;1.40;;
19804;SDS011;10062;51.052;13.756;2023-04-03T12:40:48;2.13;;;1.03;;
19804;SDS011;10062;51.052;13.756;2023-04-03T12:43:37;2.90;;;0.90;;
19804;SDS011;10062;51.052;13.756;2023-04-03T12:46:22;3.07;;;1.20;;
19804;SDS011;10062;51.052;13.756;2023-04-03T12:48:55;4.07;;;1.50;;
19804;SDS011;10062;51.052;13.756;2023-04-03T12:51:30;6.03;;;1.50;;
19804;SDS011;10062;51.052;13.756;2023-04-03T12:54:12;5.77;;;1.17;;
19804;SDS011;10062;51.052;13.756;2023-04-03T12:56:47;3.23;;;1.20;;
19804;SDS011;10062;51.052;13.756;2023-04-03T12:59:20;4.87;;;1.53;;
19804;SDS011;10062;51.052;13.756;2023-04-03T13:01:54;2.17;;;1.30;;
19804;SDS011;10062;51.052;13.756;2023-04-03T13:04:27;4.83;;;1.13;;
19804;SDS011;10062;51.052;13.756;2023-04-03T13:07:00;4.47;;;1.20;;
19804;SDS011;10062;51.052;13.756;2023-04-03T13:09:32;7.33;;;1.30;;
19804;SDS011;10062;51.052;13.756;2023-04-03T13:12:08;5.47;;;1.27;;
19804;SDS011;10062;51.052;13.756;2023-04-03T13:14:52;3.73;;;1.20;;
19804;SDS011;10062;51.052;13.756;2023-04-03T13:17:25;3.10;;;1.30;;
19804;SDS011;10062;51.052;13.756;2023-04-03T13:20:09;0.50;;;0.50;;
19804;SDS011;10062;51.052;13.756;2023-04-03T13:22:45;2.60;;;1.30;;
19804;SDS011;10062;51.052;13.756;2023-04-03T13:25:20;5.73;;;1.93;;
19804;SDS011;10062;51.052;13.756;2023-04-03T13:27:53;6.37;;;1.70;;
19804;SDS011;10062;51.052;13.756;2023-04-03T13:30:28;3.17;;;1.30;;
19804;SDS011;10062;51.052;13.756;2023-04-03T13:33:03;5.90;;;1.73;;
19804;SDS011;10062;51.052;13.756;2023-04-03T13:35:37;3.17;;;1.10;;
19804;SDS011;10062;51.052;13.756;2023-04-03T13:38:22;3.43;;;1.67;;
19804;SDS011;10062;51.052;13.756;2023-04-03T13:40:56;5.50;;;1.93;;
19804;SDS011;10062;51.052;13.756;2023-04-03T13:43:31;4.27;;;1.20;;
19804;SDS011;10062;51.052;13.756;2023-04-03T13:46:20;3.00;;;1.23;;
19804;SDS011;10062;51.052;13.756;2023-04-03T13:48:56;4.57;;;1.47;;
19804;SDS011;10062;51.052;13.756;2023-04-03T13:51:48;1.00;;;0.90;;
19804;SDS011;10062;51.052;13.756;2023-04-03T13:54:23;4.20;;;1.10;;
19804;SDS011;10062;51.052;13.756;2023-04-03T13:57:00;1.07;;;0.80;;
19804;SDS011;10062;51.052;13.756;2023-04-03T13:59:33;2.87;;;1.30;;
19804;SDS011;10062;51.052;13.756;2023-04-03T14:02:12;3.10;;;1.20;;
19804;SDS011;10062;51.052;13.756;2023-04-03T14:04:49;2.63;;;1.27;;
19804;SDS011;10062;51.052;13.756;2023-04-03T14:07:26;3.80;;;1.57;;
19804;SDS011;10062;51.052;13.756;2023-04-03T14:09:59;5.93;;;1.43;;
19804;SDS011;10062;51.052;13.756;2023-04-03T14:12:31;4.77;;;1.57;;
19804;SDS011;10062;51.052;13.756;2023-04-03T14:15:10;5.67;;;2.47;;
19804;SDS011;10062;51.052;13.756;2023-04-03T14:17:49;2.97;;;1.20;;
19804;SDS011;10062;51.052;13.756;2023-04-03T14:20:23;6.87;;;1.50;;
19804;SDS011;10062;51.052;13.756;2023-04-03T14:22:57;3.30;;;1.50;;
19804;SDS011;10062;51.052;13.756;2023-04-03T14:25:29;8.20;;;1.70;;
19804;SDS011;10062;51.052;13.756;2023-04-03T14:28:06;4.07;;;1.60;;
19804;SDS011;10062;51.052;13.756;2023-04-03T14:30:46;5.57;;;1.30;;
19804;SDS011;10062;51.052;13.756;2023-04-03T14:33:21;3.60;;;1.50;;
19804;SDS011;10062;51.052;13.756;2023-04-03T14:35:53;8.67;;;2.80;;
19804;SDS011;10062;51.052;13.756;2023-04-03T14:38:25;4.13;;;1.10;;
19804;SDS011;10062;51.052;13.756;2023-04-03T14:40:58;4.43;;;1.40;;
19804;SDS011;10062;51.052;13.756;2023-04-03T14:43:30;6.67;;;1.60;;
19804;SDS011;10062;51.052;13.756;2023-04-03T14:46:02;2.30;;;1.20;;
19804;SDS011;10062;51.052;13.756;2023-04-03T14:48:35;2.97;;;1.27;;
19804;SDS011;10062;51.052;13.756;2023-04-03T14:51:06;3.70;;;1.20;;
19804;SDS011;10062;51.052;13.756;2023-04-03T14:53:40;4.50;;;1.57;;
19804;SDS011;10062;51.052;13.756;2023-04-03T14:56:14;4.47;;;1.40;;
19804;SDS011;10062;51.052;13.756;2023-04-03T14:58:48;3.67;;;1.27;;
19804;SDS011;10062;51.052;13.756;2023-04-03T15:01:20;4.43;;;1.17;;
19804;SDS011;10062;51.052;13.756;2023-04-03T15:03:53;3.30;;;1.10;;
19804;SDS011;10062;51.052;13.756;2023-04-03T15:06:25;2.00;;;0.90;;
19804;SDS011;10062;51.052;13.756;2023-04-03T15:08:57;6.10;;;1.67;;
19804;SDS011;10062;51.052;13.756;2023-04-03T15:11:29;3.90;;;1.00;;
19804;SDS011;10062;51.052;13.756;2023-04-03T15:14:00;3.13;;;1.10;;
19804;SDS011;10062;51.052;13.756;2023-04-03T15:16:32;2.60;;;1.20;;
19804;SDS011;10062;51.052;13.756;2023-04-03T15:19:05;7.00;;;1.23;;
19804;SDS011;10062;51.052;13.756;2023-04-03T15:21:37;4.03;;;1.40;;
19804;SDS011;10062;51.052;13.756;2023-04-03T15:24:08;4.73;;;1.30;;
19804;SDS011;10062;51.052;13.756;2023-04-03T15:26:41;6.47;;;1.60;;
19804;SDS011;10062;51.052;13.756;2023-04-03T15:29:12;4.77;;;1.50;;
19804;SDS011;10062;51.052;13.756;2023-04-03T15:31:44;4.97;;;1.50;;
19804;SDS011;10062;51.052;13.756;2023-04-03T15:34:17;4.00;;;1.37;;
19804;SDS011;10062;51.052;13.756;2023-04-03T15:36:49;4.97;;;1.00;;